createdAt,value
2022-11-26T00:01:45.051Z,5.75
2022-11-26T00:04:15.890Z,5.75
2022-11-26T00:06:44.987Z,5.73
2022-11-26T00:09:19.871Z,5.76
2022-11-26T00:11:47.373Z,5.75
2022-11-26T00:14:15.993Z,5.74
2022-11-26T00:16:44.029Z,5.74
2022-11-26T00:19:11.545Z,5.70
2022-11-26T00:21:41.419Z,5.71
2022-11-26T00:24:28.194Z,5.69
2022-11-26T00:26:57.856Z,5.70
2022-11-26T00:29:25.694Z,5.68
2022-11-26T00:31:53.319Z,5.70
2022-11-26T00:34:20.973Z,5.71
2022-11-26T00:36:49.093Z,5.73
2022-11-26T00:39:23.864Z,5.72
2022-11-26T00:41:52.535Z,5.74
2022-11-26T00:44:25.678Z,5.72
2022-11-26T00:46:53.403Z,5.71
2022-11-26T00:49:21.232Z,5.69
2022-11-26T00:51:49.063Z,5.66
2022-11-26T00:54:18.853Z,5.70
2022-11-26T00:56:48.372Z,5.74
2022-11-26T00:59:21.618Z,5.68
2022-11-26T01:01:49.648Z,5.65
2022-11-26T01:04:17.234Z,5.66
2022-11-26T01:06:45.659Z,5.65
2022-11-26T01:09:22.251Z,5.69
2022-11-26T01:11:53.707Z,5.64
2022-11-26T01:14:22.734Z,5.66
2022-11-26T01:16:51.527Z,5.63
2022-11-26T01:19:19.069Z,5.64
2022-11-26T01:21:46.892Z,5.67
2022-11-26T01:24:14.402Z,5.69
2022-11-26T01:26:44.283Z,5.67
2022-11-26T01:29:17.541Z,5.67
2022-11-26T01:31:45.761Z,5.68
2022-11-26T01:34:13.734Z,5.70
2022-11-26T01:36:42.502Z,5.67
2022-11-26T01:39:09.932Z,5.67
2022-11-26T01:41:44.893Z,5.70
2022-11-26T01:44:22.635Z,5.69
2022-11-26T01:46:51.490Z,5.66
2022-11-26T01:49:38.804Z,5.67
2022-11-26T01:52:30.092Z,5.67
2022-11-26T01:54:57.765Z,5.66
2022-11-26T01:57:29.973Z,5.63
2022-11-26T02:00:01.662Z,5.58
2022-11-26T02:02:40.555Z,5.55
2022-11-26T02:05:24.761Z,5.56
2022-11-26T02:07:53.372Z,5.53
2022-11-26T02:10:20.934Z,5.56
2022-11-26T02:12:49.410Z,5.61
2022-11-26T02:15:16.940Z,5.57
2022-11-26T02:17:52.704Z,5.55
2022-11-26T02:20:49.462Z,5.58
2022-11-26T02:23:42.983Z,5.57
2022-11-26T02:26:58.575Z,5.56
2022-11-26T02:29:41.594Z,5.59
2022-11-26T02:32:28.314Z,5.63
2022-11-26T02:35:02.685Z,5.60
2022-11-26T02:37:58.054Z,5.63
2022-11-26T02:40:26.224Z,5.63
2022-11-26T02:42:53.734Z,5.68
2022-11-26T02:45:26.119Z,5.60
2022-11-26T02:47:56.484Z,5.60
2022-11-26T02:50:35.313Z,5.60
2022-11-26T02:53:05.631Z,5.56
2022-11-26T02:55:37.866Z,5.57
2022-11-26T02:58:06.444Z,5.56
2022-11-26T03:00:36.983Z,5.53
2022-11-26T03:03:11.042Z,5.52
2022-11-26T03:05:41.896Z,5.56
2022-11-26T03:08:09.642Z,5.61
2022-11-26T03:10:37.034Z,5.56
2022-11-26T03:13:04.592Z,5.63
2022-11-26T03:15:32.104Z,5.63
2022-11-26T03:17:59.806Z,5.65
2022-11-26T03:20:27.225Z,5.62
2022-11-26T03:22:54.874Z,5.64
2022-11-26T03:25:22.313Z,5.62
2022-11-26T03:27:49.742Z,5.62
2022-11-26T03:30:17.612Z,5.62
2022-11-26T03:32:45.304Z,5.62
2022-11-26T03:35:12.995Z,5.60
2022-11-26T03:37:40.505Z,5.62
2022-11-26T03:40:08.934Z,5.62
2022-11-26T03:42:36.973Z,5.57
2022-11-26T03:45:04.860Z,5.58
2022-11-26T03:47:32.365Z,5.57
2022-11-26T03:49:59.881Z,5.58
2022-11-26T03:52:27.514Z,5.57
2022-11-26T03:54:54.995Z,5.57
2022-11-26T03:57:22.524Z,5.52
2022-11-26T03:59:50.050Z,5.49
2022-11-26T04:02:17.571Z,5.51
2022-11-26T04:04:45.070Z,5.52
2022-11-26T04:07:12.686Z,5.52
2022-11-26T04:09:40.251Z,5.47
2022-11-26T04:12:07.775Z,5.49
2022-11-26T04:14:35.396Z,5.48
2022-11-26T04:17:03.177Z,5.49
2022-11-26T04:19:30.873Z,5.48
2022-11-26T04:21:58.623Z,5.43
2022-11-26T04:24:26.100Z,5.45
2022-11-26T04:26:53.693Z,5.44
2022-11-26T04:29:21.146Z,5.41
2022-11-26T04:31:48.740Z,5.41
2022-11-26T04:34:16.273Z,5.42
2022-11-26T04:36:43.855Z,5.41
2022-11-26T04:39:12.752Z,5.45
2022-11-26T04:41:40.283Z,5.48
2022-11-26T04:44:07.814Z,5.47
2022-11-26T04:46:35.263Z,5.46
2022-11-26T04:49:03.086Z,5.46
2022-11-26T04:51:30.573Z,5.50
2022-11-26T04:54:02.563Z,5.51
2022-11-26T04:56:31.054Z,5.54
2022-11-26T04:58:58.490Z,5.56
2022-11-26T05:01:26.110Z,5.56
2022-11-26T05:03:53.625Z,5.59
2022-11-26T05:06:21.243Z,5.57
2022-11-26T05:08:48.695Z,5.55
2022-11-26T05:11:16.303Z,5.56
2022-11-26T05:13:43.974Z,5.57
2022-11-26T05:16:11.547Z,5.63
2022-11-26T05:18:39.090Z,5.61
2022-11-26T05:21:06.965Z,5.58
2022-11-26T05:23:34.695Z,5.58
2022-11-26T05:26:02.211Z,5.59
2022-11-26T05:28:29.715Z,5.60
2022-11-26T05:31:01.859Z,5.60
2022-11-26T05:33:29.784Z,5.56
2022-11-26T05:35:57.372Z,5.56
2022-11-26T05:38:24.976Z,5.50
2022-11-26T05:40:52.511Z,5.49
2022-11-26T05:43:20.073Z,5.51
2022-11-26T05:45:47.668Z,5.57
2022-11-26T05:48:15.375Z,5.57
2022-11-26T05:50:42.994Z,5.53
2022-11-26T05:53:10.620Z,5.55
2022-11-26T05:55:38.247Z,5.56
2022-11-26T05:58:05.863Z,5.56
2022-11-26T06:00:33.321Z,5.59
2022-11-26T06:03:00.882Z,5.66
2022-11-26T06:05:28.384Z,5.62
2022-11-26T06:07:56.008Z,5.63
2022-11-26T06:10:23.600Z,5.64
2022-11-26T06:12:51.263Z,5.63
2022-11-26T06:15:18.951Z,5.66
2022-11-26T06:17:46.521Z,5.63
2022-11-26T06:20:14.304Z,5.64
2022-11-26T06:22:43.422Z,5.65
2022-11-26T06:25:14.236Z,5.62
2022-11-26T06:27:42.611Z,5.69
2022-11-26T06:30:11.795Z,5.68
2022-11-26T06:32:39.285Z,5.70
2022-11-26T06:35:07.030Z,5.69
2022-11-26T06:37:34.612Z,5.66
2022-11-26T06:40:02.605Z,5.63
2022-11-26T06:42:30.203Z,5.69
2022-11-26T06:44:59.935Z,5.68
2022-11-26T06:47:28.206Z,5.71
2022-11-26T06:49:55.769Z,5.72
2022-11-26T06:52:23.291Z,5.78
2022-11-26T06:54:51.126Z,5.70
2022-11-26T06:57:18.644Z,5.68
2022-11-26T06:59:46.169Z,5.68
2022-11-26T07:02:13.787Z,5.73
2022-11-26T07:04:41.621Z,5.72
2022-11-26T07:07:09.559Z,5.77
2022-11-26T07:09:37.063Z,5.72
2022-11-26T07:12:04.699Z,5.74
2022-11-26T07:14:32.344Z,5.72
2022-11-26T07:16:59.877Z,5.73
2022-11-26T07:19:27.408Z,5.74
2022-11-26T07:21:54.966Z,5.77
2022-11-26T07:24:22.503Z,5.79
2022-11-26T07:26:50.019Z,5.77
2022-11-26T07:29:17.635Z,5.78
2022-11-26T07:31:45.225Z,5.82
2022-11-26T07:34:12.770Z,5.75
2022-11-26T07:36:43.353Z,5.79
2022-11-26T07:39:12.129Z,5.77
2022-11-26T07:41:39.745Z,5.81
2022-11-26T07:44:07.204Z,5.87
2022-11-26T07:46:34.727Z,5.83
2022-11-26T07:49:02.229Z,5.85
2022-11-26T07:51:31.689Z,5.84
2022-11-26T07:54:03.274Z,5.86
2022-11-26T07:56:30.882Z,5.90
2022-11-26T07:58:58.744Z,5.93
2022-11-26T08:01:29.892Z,5.95
2022-11-26T08:03:59.327Z,6.00
2022-11-26T08:06:29.869Z,5.96
2022-11-26T08:08:59.876Z,5.91
2022-11-26T08:11:29.210Z,5.91
2022-11-26T08:14:01.740Z,5.91
2022-11-26T08:16:29.507Z,5.94
2022-11-26T08:18:58.425Z,5.95
2022-11-26T08:21:26.935Z,6.06
2022-11-26T08:23:55.476Z,6.15
2022-11-26T08:26:31.412Z,6.20
2022-11-26T08:29:00.689Z,6.16
2022-11-26T08:31:28.632Z,6.21
2022-11-26T08:33:58.145Z,6.25
2022-11-26T08:36:28.351Z,6.27
2022-11-26T08:38:56.050Z,6.26
2022-11-26T08:41:23.568Z,6.24
2022-11-26T08:44:06.120Z,6.17
2022-11-26T08:46:34.883Z,6.20
2022-11-26T08:49:02.573Z,6.20
2022-11-26T08:51:30.085Z,6.14
2022-11-26T08:53:57.510Z,6.25
2022-11-26T08:56:25.056Z,6.27
2022-11-26T08:58:52.671Z,6.24
2022-11-26T09:01:26.894Z,6.34
2022-11-26T09:03:58.056Z,6.27
2022-11-26T09:06:27.939Z,6.25
2022-11-26T09:09:14.493Z,6.31
2022-11-26T09:11:49.800Z,6.46
2022-11-26T09:14:20.600Z,6.54
2022-11-26T09:16:48.289Z,6.61
2022-11-26T09:19:16.475Z,6.55
2022-11-26T09:21:45.241Z,6.63
2022-11-26T09:24:13.269Z,6.63
2022-11-26T09:26:41.163Z,6.70
2022-11-26T09:29:12.779Z,6.79
2022-11-26T09:32:00.623Z,6.86
2022-11-26T09:34:27.845Z,6.95
2022-11-26T09:36:55.429Z,7.04
2022-11-26T09:39:23.009Z,6.95
2022-11-26T09:42:04.320Z,6.95
2022-11-26T09:45:12.573Z,7.00
2022-11-26T09:47:43.568Z,6.95
2022-11-26T09:50:10.983Z,6.87
2022-11-26T09:53:03.512Z,6.88
2022-11-26T09:55:33.828Z,6.87
2022-11-26T09:58:16.431Z,6.85
2022-11-26T10:00:50.403Z,6.80
2022-11-26T10:03:23.507Z,6.90
2022-11-26T10:05:56.772Z,6.97
2022-11-26T10:08:45.730Z,6.90
2022-11-26T10:11:31.293Z,6.94
2022-11-26T10:14:23.514Z,7.00
2022-11-26T10:17:21.598Z,7.02
2022-11-26T10:20:14.089Z,6.94
2022-11-26T10:23:02.889Z,6.98
2022-11-26T10:25:39.410Z,6.99
2022-11-26T10:28:18.410Z,6.97
2022-11-26T10:30:51.598Z,6.96
2022-11-26T10:33:20.701Z,6.87
2022-11-26T10:35:50.050Z,6.82
2022-11-26T10:38:17.920Z,6.89
2022-11-26T10:40:45.401Z,6.89
2022-11-26T10:43:22.423Z,6.90
2022-11-26T10:45:52.488Z,6.97
2022-11-26T10:48:22.414Z,6.88
2022-11-26T10:51:02.000Z,6.87
2022-11-26T10:53:34.991Z,6.85
2022-11-26T10:56:07.274Z,6.89
2022-11-26T10:58:42.978Z,6.83
2022-11-26T11:01:14.517Z,6.88
2022-11-26T11:04:13.855Z,6.81
2022-11-26T11:06:43.480Z,6.91
2022-11-26T11:09:23.165Z,6.90
2022-11-26T11:12:08.402Z,6.88
2022-11-26T11:14:41.091Z,6.84
2022-11-26T11:17:29.700Z,6.85
2022-11-26T11:20:11.800Z,6.93
2022-11-26T11:22:39.368Z,6.96
2022-11-26T11:25:21.481Z,6.97
2022-11-26T11:27:49.710Z,6.78
2022-11-26T11:30:25.839Z,6.82
2022-11-26T11:32:57.712Z,6.78
2022-11-26T11:35:30.410Z,6.76
2022-11-26T11:37:58.888Z,6.66
2022-11-26T11:40:30.494Z,6.72
2022-11-26T11:43:01.877Z,6.74
2022-11-26T11:45:34.590Z,6.75
2022-11-26T11:48:28.794Z,6.73
2022-11-26T11:51:08.580Z,6.75
2022-11-26T11:54:11.190Z,6.81
2022-11-26T11:56:48.920Z,6.87
2022-11-26T11:59:19.450Z,6.92
2022-11-26T12:01:59.278Z,6.87
2022-11-26T12:04:45.246Z,6.94
2022-11-26T12:07:29.747Z,6.93
2022-11-26T12:10:05.536Z,6.97
2022-11-26T12:12:37.396Z,6.98
2022-11-26T12:15:13.193Z,6.93
2022-11-26T12:17:55.566Z,6.99
2022-11-26T12:20:27.700Z,7.04
2022-11-26T12:23:09.025Z,7.05
2022-11-26T12:25:39.837Z,7.03
2022-11-26T12:28:18.294Z,7.02
2022-11-26T12:31:30.011Z,6.98
2022-11-26T12:34:16.947Z,6.90
2022-11-26T12:36:51.331Z,6.84
2022-11-26T12:39:24.490Z,6.88
2022-11-26T12:42:19.949Z,6.85
2022-11-26T12:44:51.876Z,6.90
2022-11-26T12:47:30.601Z,6.89
2022-11-26T12:50:24.067Z,6.90
2022-11-26T12:53:12.629Z,6.89
2022-11-26T12:55:52.870Z,6.94
2022-11-26T12:58:24.500Z,6.96
2022-11-26T13:00:55.788Z,6.93
2022-11-26T13:03:33.827Z,6.94
2022-11-26T13:06:13.043Z,6.91
2022-11-26T13:09:36.277Z,6.87
2022-11-26T13:12:09.550Z,6.77
2022-11-26T13:15:12.209Z,6.74
2022-11-26T13:17:51.039Z,6.76
2022-11-26T13:20:43.456Z,6.79
2022-11-26T13:23:27.396Z,6.80
2022-11-26T13:26:13.651Z,6.81
2022-11-26T13:29:02.979Z,6.84
2022-11-26T13:32:09.908Z,6.81
2022-11-26T13:34:59.142Z,6.80
2022-11-26T13:37:44.696Z,6.78
2022-11-26T13:40:35.162Z,6.73
2022-11-26T13:43:40.098Z,6.68
2022-11-26T13:46:07.607Z,6.65
2022-11-26T13:48:45.693Z,6.62
2022-11-26T13:51:31.186Z,6.63
2022-11-26T13:54:06.619Z,6.65
2022-11-26T13:56:37.350Z,6.69
2022-11-26T13:59:28.592Z,6.65
2022-11-26T14:01:56.764Z,6.60
2022-11-26T14:04:24.198Z,6.61
2022-11-26T14:07:03.996Z,6.58
2022-11-26T14:09:44.485Z,6.53
2022-11-26T14:12:16.681Z,6.54
2022-11-26T14:14:49.210Z,6.54
2022-11-26T14:17:32.416Z,6.54
2022-11-26T14:20:02.318Z,6.47
2022-11-26T14:22:32.797Z,6.45
2022-11-26T14:25:03.319Z,6.45
2022-11-26T14:27:30.783Z,6.46
2022-11-26T14:30:06.952Z,6.43
2022-11-26T14:32:41.135Z,6.40
2022-11-26T14:35:36.229Z,6.42
2022-11-26T14:38:06.263Z,6.37
2022-11-26T14:40:38.430Z,6.38
2022-11-26T14:43:24.129Z,6.36
2022-11-26T14:46:12.564Z,6.35
2022-11-26T14:48:49.759Z,6.34
2022-11-26T14:51:23.425Z,6.27
2022-11-26T14:53:51.831Z,6.24
2022-11-26T14:56:21.717Z,6.21
2022-11-26T14:58:54.009Z,6.16
2022-11-26T15:01:24.570Z,6.05
2022-11-26T15:03:59.932Z,5.99
2022-11-26T15:06:38.581Z,5.96
2022-11-26T15:09:15.548Z,5.91
2022-11-26T15:11:50.677Z,5.87
2022-11-26T15:14:29.968Z,5.82
2022-11-26T15:17:02.910Z,5.77
2022-11-26T15:19:36.336Z,5.66
2022-11-26T15:22:07.967Z,5.57
2022-11-26T15:24:36.404Z,5.55
2022-11-26T15:27:03.999Z,5.43
2022-11-26T15:29:37.421Z,5.33
2022-11-26T15:32:05.189Z,5.31
2022-11-26T15:34:33.409Z,5.26
2022-11-26T15:37:01.049Z,5.14
2022-11-26T15:39:31.389Z,5.10
2022-11-26T15:42:04.849Z,5.04
2022-11-26T15:44:42.391Z,5.02
2022-11-26T15:47:20.631Z,4.97
2022-11-26T15:49:52.929Z,4.97
2022-11-26T15:52:32.999Z,4.98
2022-11-26T15:55:12.357Z,5.00
2022-11-26T15:57:42.261Z,5.00
2022-11-26T16:00:30.760Z,5.00
2022-11-26T16:02:58.445Z,4.99
2022-11-26T16:05:39.500Z,4.94
2022-11-26T16:08:30.469Z,4.90
2022-11-26T16:11:06.781Z,4.83
2022-11-26T16:13:36.191Z,4.81
2022-11-26T16:16:21.851Z,4.79
2022-11-26T16:19:00.410Z,4.82
2022-11-26T16:21:32.413Z,4.84
2022-11-26T16:24:05.722Z,4.82
2022-11-26T16:26:52.771Z,4.84
2022-11-26T16:29:20.306Z,4.88
2022-11-26T16:31:47.710Z,4.88
2022-11-26T16:34:15.230Z,4.87
2022-11-26T16:36:43.261Z,4.89
2022-11-26T16:39:15.050Z,4.87
2022-11-26T16:41:43.475Z,4.89
2022-11-26T16:44:10.987Z,4.88
2022-11-26T16:46:38.897Z,4.92
2022-11-26T16:49:06.731Z,4.94
2022-11-26T16:51:34.240Z,4.93
2022-11-26T16:54:01.851Z,4.95
2022-11-26T16:56:40.103Z,4.99
2022-11-26T16:59:18.527Z,5.02
2022-11-26T17:01:46.491Z,5.06
2022-11-26T17:04:14.724Z,5.10
2022-11-26T17:06:43.409Z,5.13
2022-11-26T17:09:17.809Z,5.09
2022-11-26T17:11:45.846Z,5.11
2022-11-26T17:14:13.446Z,5.12
2022-11-26T17:16:41.224Z,5.06
2022-11-26T17:19:14.040Z,5.05
2022-11-26T17:21:41.539Z,5.09
2022-11-26T17:24:09.342Z,5.15
2022-11-26T17:26:36.920Z,5.14
2022-11-26T17:29:04.577Z,5.19
2022-11-26T17:31:32.165Z,5.14
2022-11-26T17:33:59.720Z,5.17
2022-11-26T17:36:27.359Z,5.18
2022-11-26T17:38:54.990Z,5.17
2022-11-26T17:41:22.479Z,5.14
2022-11-26T17:43:50.051Z,5.16
2022-11-26T17:46:20.467Z,5.23
2022-11-26T17:48:49.369Z,5.20
2022-11-26T17:51:17.329Z,5.20
2022-11-26T17:53:45.199Z,5.23
2022-11-26T17:56:18.849Z,5.22
2022-11-26T17:58:46.909Z,5.17
2022-11-26T18:01:15.895Z,5.18
2022-11-26T18:03:43.884Z,5.18
2022-11-26T18:06:16.601Z,5.13
2022-11-26T18:08:44.976Z,5.09
2022-11-26T18:11:14.356Z,5.09
2022-11-26T18:13:41.871Z,5.14
2022-11-26T18:16:09.359Z,5.14
2022-11-26T18:18:36.849Z,5.12
2022-11-26T18:21:05.062Z,5.10
2022-11-26T18:23:32.879Z,5.06
2022-11-26T18:26:00.969Z,5.14
2022-11-26T18:28:28.780Z,5.15
2022-11-26T18:30:59.910Z,5.14
2022-11-26T18:33:27.528Z,5.08
2022-11-26T18:35:55.017Z,5.02
2022-11-26T18:38:22.630Z,5.08
2022-11-26T18:40:59.837Z,5.10
2022-11-26T18:43:27.410Z,5.09
2022-11-26T18:45:54.890Z,5.09
2022-11-26T18:48:22.446Z,5.07
2022-11-26T18:50:59.799Z,5.07
2022-11-26T18:53:28.317Z,5.07
2022-11-26T18:55:57.118Z,5.07
2022-11-26T18:58:25.464Z,5.04
2022-11-26T19:00:58.784Z,5.05
2022-11-26T19:03:27.610Z,5.10
2022-11-26T19:05:55.390Z,5.07
2022-11-26T19:08:24.049Z,5.03
2022-11-26T19:10:51.774Z,5.02
2022-11-26T19:13:19.241Z,4.98
2022-11-26T19:15:46.710Z,4.98
2022-11-26T19:18:14.786Z,4.95
2022-11-26T19:20:50.432Z,4.92
2022-11-26T19:23:24.120Z,4.91
2022-11-26T19:25:52.029Z,4.91
2022-11-26T19:28:19.698Z,4.88
2022-11-26T19:31:01.109Z,4.87
2022-11-26T19:33:28.811Z,4.87
2022-11-26T19:35:56.810Z,4.87
2022-11-26T19:38:24.838Z,4.87
2022-11-26T19:40:59.730Z,4.87
2022-11-26T19:47:33.366Z,4.87
2022-11-26T19:50:00.838Z,4.87
2022-11-26T19:52:28.342Z,4.88
2022-11-26T19:54:55.891Z,4.85
2022-11-26T19:57:23.375Z,4.86
2022-11-26T19:59:51.446Z,4.84
2022-11-26T20:02:18.984Z,4.79
2022-11-26T20:04:46.426Z,4.78
2022-11-26T20:07:13.888Z,4.80
2022-11-26T20:09:41.649Z,4.78
2022-11-26T20:12:09.371Z,4.78
2022-11-26T20:14:36.826Z,4.81
2022-11-26T20:17:04.539Z,4.83
2022-11-26T20:19:32.174Z,4.83
2022-11-26T20:21:59.702Z,4.82
2022-11-26T20:24:27.169Z,4.83
2022-11-26T20:26:54.736Z,4.78
2022-11-26T20:29:23.075Z,4.81
2022-11-26T20:31:52.154Z,4.80
2022-11-26T20:34:24.715Z,4.78
2022-11-26T20:36:52.656Z,4.76
2022-11-26T20:39:21.997Z,4.72
2022-11-26T20:41:50.002Z,4.69
2022-11-26T20:44:17.607Z,4.68
2022-11-26T20:46:45.093Z,4.68
2022-11-26T20:49:12.637Z,4.64
2022-11-26T20:51:40.276Z,4.66
2022-11-26T20:54:07.764Z,4.67
2022-11-26T20:56:35.365Z,4.66
2022-11-26T20:59:02.896Z,4.67
2022-11-26T21:01:31.678Z,4.67
2022-11-26T21:03:59.979Z,4.64
2022-11-26T21:06:30.581Z,4.64
2022-11-26T21:09:03.709Z,4.63
2022-11-26T21:11:31.682Z,4.60
2022-11-26T21:14:01.658Z,4.58
2022-11-26T21:16:30.684Z,4.57
2022-11-26T21:18:58.842Z,4.53
2022-11-26T21:21:28.135Z,4.49
2022-11-26T21:23:57.372Z,4.43
2022-11-26T21:26:26.587Z,4.37
2022-11-26T21:28:56.184Z,4.32
2022-11-26T21:31:24.500Z,4.26
2022-11-26T21:33:58.047Z,4.18
2022-11-26T21:36:26.522Z,4.12
2022-11-26T21:38:54.405Z,4.05
2022-11-26T21:41:23.016Z,4.02
2022-11-26T21:43:51.235Z,3.97
2022-11-26T21:46:24.001Z,3.97
2022-11-26T21:48:53.097Z,3.96
2022-11-26T21:51:21.446Z,3.97
2022-11-26T21:53:49.969Z,3.91
2022-11-26T21:56:20.361Z,3.90
2022-11-26T21:58:48.563Z,3.87
2022-11-26T22:01:23.050Z,3.87
2022-11-26T22:03:52.842Z,3.84
2022-11-26T22:06:21.677Z,3.82
2022-11-26T22:08:49.864Z,3.79
2022-11-26T22:11:38.966Z,3.77
2022-11-26T22:14:08.027Z,3.81
2022-11-26T22:16:35.824Z,3.83
2022-11-26T22:19:05.126Z,3.86
2022-11-26T22:21:39.316Z,3.83
2022-11-26T22:24:10.427Z,3.82
2022-11-26T22:26:38.076Z,3.82
2022-11-26T22:29:06.221Z,3.85
2022-11-26T22:31:38.598Z,3.87
2022-11-26T22:34:10.154Z,3.88
2022-11-26T22:36:38.594Z,3.83
2022-11-26T22:39:10.967Z,3.83
2022-11-26T22:41:40.646Z,3.85
2022-11-26T22:44:08.308Z,3.86
2022-11-26T22:46:38.409Z,3.89
2022-11-26T22:49:07.182Z,3.96
2022-11-26T22:51:35.724Z,3.99
2022-11-26T22:54:07.083Z,3.99
2022-11-26T22:56:38.005Z,4.02
2022-11-26T22:59:07.240Z,3.98
2022-11-26T23:01:36.631Z,4.00
2022-11-26T23:04:07.312Z,3.99
2022-11-26T23:06:35.815Z,3.99
2022-11-26T23:09:05.906Z,4.00
2022-11-26T23:11:37.624Z,4.02
2022-11-26T23:14:07.609Z,4.02
2022-11-26T23:16:37.120Z,3.99
2022-11-26T23:19:04.953Z,3.97
2022-11-26T23:21:35.655Z,3.98
2022-11-26T23:24:03.248Z,4.02
2022-11-26T23:26:33.018Z,4.00
2022-11-26T23:29:02.414Z,4.03
2022-11-26T23:31:36.932Z,4.03
2022-11-26T23:34:05.701Z,4.02
2022-11-26T23:36:34.368Z,4.03
2022-11-26T23:39:04.268Z,4.07
2022-11-26T23:41:31.926Z,4.08
2022-11-26T23:43:59.427Z,4.09
2022-11-26T23:46:29.678Z,4.12
2022-11-26T23:48:57.798Z,4.11
2022-11-26T23:51:28.227Z,4.09
2022-11-26T23:53:56.078Z,4.10
2022-11-26T23:56:26.457Z,4.12
2022-11-26T23:58:56.413Z,4.12
